Time;durP1;ratioP1;P1;durP2;ratioP2;P2;SDS_P1;SDS_P2;PMS_P1;PMS_P2;Temp;Humidity;BMP_temperature;BMP_pressure;BME280_temperature;BME280_humidity;BME280_pressure;Samples;Min_cycle;Max_cycle;Signal;HPM_P1;HPM_P2
2022/04/18 00:00:00;;;;;;;8.83;1.80;;;11.70;99.90;;;;;;5010759;28;20205;-59
2022/04/18 00:02:26;;;;;;;8.63;1.60;;;11.60;99.90;;;;;;5010337;28;20263;-59
2022/04/18 00:04:52;;;;;;;12.43;1.90;;;11.50;99.90;;;;;;5010530;28;20186;-59
2022/04/18 00:07:18;;;;;;;11.00;2.00;;;11.50;99.90;;;;;;5010342;28;20653;-60
2022/04/18 00:09:44;;;;;;;9.80;1.37;;;11.40;99.90;;;;;;5010650;28;20170;-59
2022/04/18 00:12:10;;;;;;;10.97;1.90;;;11.40;99.90;;;;;;5010444;28;20607;-60
2022/04/18 00:14:35;;;;;;;12.17;1.90;;;11.30;99.90;;;;;;5010345;28;20175;-59
2022/04/18 00:17:02;;;;;;;9.23;0.93;;;11.20;99.90;;;;;;5010355;28;20649;-58
2022/04/18 00:19:27;;;;;;;9.30;1.87;;;11.20;99.90;;;;;;5010347;28;20254;-60
2022/04/18 00:21:53;;;;;;;14.63;1.90;;;11.10;99.90;;;;;;5010177;28;20287;-60
2022/04/18 00:24:22;;;;;;;14.20;1.77;;;11.10;99.90;;;;;;5010684;28;20287;-60
2022/04/18 00:26:48;;;;;;;11.83;1.40;;;11.10;99.90;;;;;;5010328;28;20204;-60
2022/04/18 00:29:14;;;;;;;14.83;3.60;;;11.10;99.90;;;;;;5012992;28;20174;-60
2022/04/18 00:31:40;;;;;;;10.93;2.00;;;11.10;99.90;;;;;;5014190;28;20656;-59
2022/04/18 00:34:06;;;;;;;24.37;4.47;;;11.10;99.90;;;;;;5014194;28;20745;-59
2022/04/18 00:36:32;;;;;;;11.27;1.73;;;11.10;99.90;;;;;;5014445;28;20186;-59
2022/04/18 00:38:59;;;;;;;22.70;6.73;;;11.00;99.90;;;;;;5013997;28;20644;-59
2022/04/18 00:41:24;;;;;;;10.87;1.43;;;11.00;99.90;;;;;;5014117;28;20210;-59
2022/04/18 00:43:50;;;;;;;13.50;2.50;;;10.90;99.90;;;;;;5014083;28;20178;-60
2022/04/18 00:46:18;;;;;;;13.53;2.27;;;10.90;99.90;;;;;;5013822;28;20174;-59
2022/04/18 00:48:45;;;;;;;19.13;2.23;;;10.90;99.90;;;;;;5013918;28;20284;-59
2022/04/18 00:51:13;;;;;;;18.63;3.17;;;10.90;99.90;;;;;;5013661;28;20240;-59
2022/04/18 00:53:41;;;;;;;17.27;5.37;;;10.90;99.90;;;;;;5013542;28;20182;-59
2022/04/18 00:56:09;;;;;;;13.97;1.50;;;10.80;99.90;;;;;;5013349;28;20258;-59
2022/04/18 00:58:36;;;;;;;10.67;2.63;;;10.80;99.90;;;;;;5013549;28;20201;-59
2022/04/18 01:01:02;;;;;;;10.23;1.60;;;10.80;99.90;;;;;;5013469;28;20194;-59
2022/04/18 01:03:31;;;;;;;13.33;1.47;;;10.80;99.90;;;;;;5013497;28;20185;-60
2022/04/18 01:05:59;;;;;;;21.23;4.07;;;10.70;99.90;;;;;;5013648;28;20179;-59
2022/04/18 01:08:31;;;;;;;13.00;2.97;;;10.70;99.90;;;;;;5013339;28;20175;-59
2022/04/18 01:10:57;;;;;;;13.67;1.67;;;10.70;99.90;;;;;;5013384;28;20186;-59
2022/04/18 01:13:23;;;;;;;10.70;1.47;;;10.60;99.90;;;;;;5013255;28;20170;-61
2022/04/18 01:15:52;;;;;;;11.50;3.30;;;10.60;99.90;;;;;;5013114;28;20236;-59
2022/04/18 01:18:19;;;;;;;12.87;2.10;;;10.50;99.90;;;;;;5013059;28;20655;-59
2022/04/18 01:20:44;;;;;;;8.07;1.30;;;10.50;99.90;;;;;;5013327;28;20175;-59
2022/04/18 01:23:10;;;;;;;13.30;2.10;;;10.50;99.90;;;;;;5013412;28;20175;-59
2022/04/18 01:31:04;;;;;;;16.57;2.50;;;10.50;99.90;;;;;;5013436;28;20180;-59
2022/04/18 01:33:30;;;;;;;14.10;1.80;;;10.40;99.90;;;;;;5013113;28;20512;-59
2022/04/18 01:35:56;;;;;;;9.40;1.50;;;10.40;99.90;;;;;;5012947;28;20598;-59
2022/04/18 01:38:22;;;;;;;21.67;2.17;;;10.30;99.90;;;;;;5013071;28;20201;-59
2022/04/18 01:40:48;;;;;;;14.23;1.83;;;10.40;99.90;;;;;;5011572;28;20210;-59
2022/04/18 01:43:14;;;;;;;10.83;1.53;;;10.30;99.90;;;;;;5013072;28;20183;-59
2022/04/18 01:45:40;;;;;;;15.10;1.53;;;10.30;99.90;;;;;;5012784;28;20171;-59
2022/04/18 01:48:06;;;;;;;13.67;1.73;;;10.30;99.90;;;;;;5012923;28;20639;-59
2022/04/18 01:50:31;;;;;;;14.07;1.50;;;10.20;99.90;;;;;;5011379;28;20281;-59
2022/04/18 01:52:57;;;;;;;14.47;1.97;;;10.20;99.90;;;;;;5012732;28;20250;-59
2022/04/18 01:55:23;;;;;;;8.47;1.47;;;10.20;99.90;;;;;;5012348;28;20723;-59
2022/04/18 01:57:49;;;;;;;13.87;2.07;;;10.20;99.90;;;;;;5012523;28;20727;-59
2022/04/18 02:00:15;;;;;;;12.13;1.57;;;10.20;99.90;;;;;;5012641;28;20210;-59
2022/04/18 02:02:40;;;;;;;8.67;1.57;;;10.10;99.90;;;;;;5012416;28;20563;-59
2022/04/18 02:05:07;;;;;;;17.43;2.00;;;10.10;99.90;;;;;;5012446;28;20562;-59
2022/04/18 02:07:33;;;;;;;16.23;1.80;;;10.10;99.90;;;;;;5012195;28;20214;-59
2022/04/18 02:09:59;;;;;;;18.03;2.43;;;10.10;99.90;;;;;;5012389;28;20175;-59
2022/04/18 02:12:25;;;;;;;13.27;1.90;;;10.10;99.90;;;;;;5012250;28;20560;-59
2022/04/18 02:14:51;;;;;;;11.67;1.87;;;10.10;99.90;;;;;;5012365;28;20273;-59
2022/04/18 02:17:17;;;;;;;12.17;2.83;;;10.10;99.90;;;;;;5012415;28;20257;-59
2022/04/18 02:19:44;;;;;;;14.47;4.10;;;10.00;99.90;;;;;;5012440;28;20213;-59
2022/04/18 02:22:12;;;;;;;17.03;2.10;;;10.00;99.90;;;;;;5012086;28;20218;-59
2022/04/18 02:24:39;;;;;;;16.10;1.60;;;10.00;99.90;;;;;;5011906;28;20186;-59
2022/04/18 02:27:06;;;;;;;14.30;2.00;;;10.00;99.90;;;;;;5012149;28;20269;-59
2022/04/18 02:29:32;;;;;;;15.27;1.53;;;10.00;99.90;;;;;;5011904;28;20179;-59
2022/04/18 02:34:42;;;;;;;10.13;2.03;;;9.90;99.90;;;;;;5012184;28;20185;-59
2022/04/18 02:37:08;;;;;;;19.87;1.93;;;9.90;99.90;;;;;;5011757;28;20171;-59
2022/04/18 02:39:34;;;;;;;15.27;1.63;;;9.90;99.90;;;;;;5011920;28;20222;-59
2022/04/18 02:42:00;;;;;;;17.93;1.63;;;9.80;99.90;;;;;;5011814;28;20590;-59
2022/04/18 02:44:26;;;;;;;12.30;1.67;;;9.80;99.90;;;;;;5011765;28;20637;-59
2022/04/18 02:46:52;;;;;;;13.40;1.47;;;9.80;99.90;;;;;;5011578;28;20961;-59
2022/04/18 02:49:17;;;;;;;9.97;1.67;;;9.80;99.90;;;;;;5011410;28;20171;-59
2022/04/18 02:51:43;;;;;;;6.53;1.03;;;9.80;99.90;;;;;;5011438;28;20659;-59
2022/04/18 02:54:09;;;;;;;18.73;2.23;;;9.80;99.90;;;;;;5011479;28;20205;-59
2022/04/18 02:56:35;;;;;;;11.20;2.07;;;9.70;99.90;;;;;;5011290;28;20241;-59
2022/04/18 02:59:00;;;;;;;15.07;2.20;;;9.80;99.90;;;;;;5011491;28;20680;-59
2022/04/18 03:01:26;;;;;;;13.33;1.73;;;9.80;99.90;;;;;;5011423;28;20685;-59
2022/04/18 03:03:52;;;;;;;15.77;2.50;;;9.80;99.90;;;;;;5011434;28;20612;-59
2022/04/18 03:06:17;;;;;;;15.73;2.13;;;9.80;99.90;;;;;;5011425;28;20510;-59
2022/04/18 03:08:43;;;;;;;18.33;2.10;;;9.80;99.90;;;;;;5011311;28;20274;-60
2022/04/18 03:11:10;;;;;;;15.60;2.13;;;9.80;99.90;;;;;;5011278;28;20178;-59
2022/04/18 03:13:37;;;;;;;17.73;2.13;;;9.80;99.90;;;;;;5011268;28;20270;-59
2022/04/18 03:16:05;;;;;;;14.70;2.20;;;9.80;99.90;;;;;;5011158;28;20175;-59
2022/04/18 03:18:31;;;;;;;13.10;2.47;;;9.80;99.90;;;;;;5011110;28;20166;-59
2022/04/18 03:20:59;;;;;;;16.97;1.63;;;9.80;99.90;;;;;;5011038;28;20261;-59
2022/04/18 03:23:25;;;;;;;19.20;2.40;;;9.80;99.90;;;;;;5011172;28;20171;-60
2022/04/18 03:25:51;;;;;;;19.77;2.07;;;9.80;99.90;;;;;;5011285;28;20783;-59
2022/04/18 03:28:17;;;;;;;17.50;2.37;;;9.70;99.90;;;;;;5011111;28;20560;-59
2022/04/18 03:30:44;;;;;;;16.53;2.33;;;9.70;99.90;;;;;;5010962;28;20233;-59
2022/04/18 03:33:10;;;;;;;19.90;2.90;;;9.70;99.90;;;;;;5010977;28;20647;-59
2022/04/18 03:35:35;;;;;;;19.50;2.23;;;9.60;99.90;;;;;;5010980;28;20252;-59
2022/04/18 03:40:45;;;;;;;12.97;1.93;;;9.60;99.90;;;;;;5010863;28;20181;-59
2022/04/18 03:43:11;;;;;;;16.73;2.33;;;9.60;99.90;;;;;;5010773;28;20214;-59
2022/04/18 03:45:37;;;;;;;12.03;2.10;;;9.60;99.90;;;;;;5010540;28;20673;-59
2022/04/18 03:48:03;;;;;;;17.43;2.20;;;9.60;99.90;;;;;;5010677;28;20182;-59
2022/04/18 03:50:29;;;;;;;13.50;1.97;;;9.50;99.90;;;;;;5010815;28;20174;-59
2022/04/18 03:52:55;;;;;;;22.30;2.33;;;9.50;99.90;;;;;;5010788;28;20201;-59
2022/04/18 03:55:20;;;;;;;22.53;2.37;;;9.50;99.90;;;;;;5010606;28;20233;-59
2022/04/18 03:57:46;;;;;;;15.00;2.20;;;9.50;99.90;;;;;;5010726;28;20618;-59
2022/04/18 04:00:13;;;;;;;18.17;2.40;;;9.50;99.90;;;;;;5010748;28;20646;-59
2022/04/18 04:02:39;;;;;;;22.63;2.33;;;9.40;99.90;;;;;;5009807;28;20684;-59
2022/04/18 04:05:05;;;;;;;22.77;2.60;;;9.40;99.90;;;;;;5010663;28;20229;-59
2022/04/18 04:07:31;;;;;;;19.70;2.37;;;9.30;99.90;;;;;;5010631;28;20284;-59
2022/04/18 04:09:57;;;;;;;18.87;2.27;;;9.40;99.90;;;;;;5010735;28;20198;-59
2022/04/18 04:12:24;;;;;;;23.07;2.57;;;9.40;99.90;;;;;;5010633;28;20198;-59
2022/04/18 04:14:54;;;;;;;19.00;2.00;;;9.30;99.90;;;;;;5010703;28;20179;-59
2022/04/18 04:17:23;;;;;;;11.63;2.30;;;9.30;99.90;;;;;;5010554;28;20202;-59
2022/04/18 04:19:50;;;;;;;17.20;2.37;;;9.30;99.90;;;;;;5010462;28;20171;-58
2022/04/18 04:22:15;;;;;;;19.80;2.37;;;9.30;99.90;;;;;;5010611;28;20222;-58
2022/04/18 04:24:41;;;;;;;17.87;2.10;;;9.30;99.90;;;;;;5010457;28;20185;-57
2022/04/18 04:27:07;;;;;;;25.70;2.70;;;9.40;99.90;;;;;;5010948;28;20555;-58
2022/04/18 04:29:33;;;;;;;19.50;2.40;;;9.40;99.90;;;;;;5010300;28;20690;-57
2022/04/18 04:31:59;;;;;;;21.93;2.30;;;9.60;99.90;;;;;;5010412;28;20213;-60
2022/04/18 04:34:25;;;;;;;18.80;2.30;;;9.60;99.90;;;;;;5010618;28;20179;-60
2022/04/18 04:36:50;;;;;;;27.77;2.67;;;9.60;99.90;;;;;;5010350;28;20549;-60
2022/04/18 04:39:17;;;;;;;16.60;2.47;;;9.60;99.90;;;;;;5010476;28;20182;-58
2022/04/18 04:41:43;;;;;;;24.33;2.43;;;9.70;99.90;;;;;;5010257;28;20198;-57
2022/04/18 04:44:09;;;;;;;15.60;2.57;;;9.70;99.90;;;;;;5010370;28;20534;-60
2022/04/18 04:46:36;;;;;;;15.23;2.87;;;9.70;99.90;;;;;;5009976;28;20215;-60
2022/04/18 04:49:02;;;;;;;20.00;2.50;;;9.70;99.90;;;;;;5010474;28;20174;-60
2022/04/18 04:51:28;;;;;;;18.20;3.00;;;9.70;99.90;;;;;;5010307;28;20179;-60
2022/04/18 04:53:54;;;;;;;17.67;2.80;;;9.70;99.90;;;;;;5010026;28;20179;-60
2022/04/18 04:56:25;;;;;;;18.57;2.93;;;9.80;99.90;;;;;;5010099;28;20276;-60
2022/04/18 04:58:51;;;;;;;21.30;2.90;;;9.80;99.90;;;;;;5010062;28;20178;-57
2022/04/18 05:01:17;;;;;;;25.43;2.87;;;9.90;99.90;;;;;;5010195;28;20669;-58
2022/04/18 05:03:42;;;;;;;16.33;2.67;;;9.90;99.90;;;;;;5010182;28;20229;-58
2022/04/18 05:06:10;;;;;;;17.33;3.20;;;9.90;99.90;;;;;;5010149;28;20163;-58
2022/04/18 05:08:36;;;;;;;20.33;3.10;;;9.90;99.90;;;;;;5009955;28;20167;-58
2022/04/18 05:11:03;;;;;;;19.93;3.03;;;9.80;99.90;;;;;;5009965;28;20167;-58
2022/04/18 05:13:28;;;;;;;16.93;3.00;;;9.80;99.90;;;;;;5009786;28;20206;-58
2022/04/18 05:15:54;;;;;;;21.97;2.90;;;9.80;99.90;;;;;;5013242;28;20190;-58
2022/04/18 05:18:20;;;;;;;23.50;3.40;;;9.90;99.90;;;;;;5013411;28;20178;-58
2022/04/18 05:20:46;;;;;;;21.67;3.27;;;9.80;99.90;;;;;;5013796;28;20171;-58
2022/04/18 05:23:16;;;;;;;20.37;3.53;;;9.80;99.90;;;;;;5013469;28;20214;-59
2022/04/18 05:25:42;;;;;;;26.10;3.17;;;9.80;99.90;;;;;;5013779;28;20167;-59
2022/04/18 05:28:07;;;;;;;24.73;3.03;;;9.80;99.90;;;;;;5013496;28;20259;-58
2022/04/18 05:30:33;;;;;;;32.80;3.77;;;9.80;99.90;;;;;;5013280;28;20179;-58
2022/04/18 05:32:59;;;;;;;24.00;3.07;;;9.80;99.90;;;;;;5013269;28;20186;-58
2022/04/18 05:35:24;;;;;;;17.57;3.13;;;9.80;99.90;;;;;;5013071;28;20174;-59
2022/04/18 05:37:50;;;;;;;16.20;3.00;;;9.80;99.90;;;;;;5013174;28;20166;-58
2022/04/18 05:40:16;;;;;;;18.37;3.13;;;9.80;99.90;;;;;;5013099;28;20202;-59
2022/04/18 05:42:42;;;;;;;24.20;3.07;;;10.40;99.90;;;;;;5013123;28;20726;-59
2022/04/18 05:45:08;;;;;;;24.60;3.13;;;9.80;99.90;;;;;;5012971;28;20229;-59
2022/04/18 05:47:34;;;;;;;22.33;3.13;;;9.80;99.90;;;;;;5012878;28;20170;-59
2022/04/18 05:50:00;;;;;;;20.33;3.07;;;9.80;99.90;;;;;;5012692;28;20237;-60
2022/04/18 05:52:26;;;;;;;17.40;2.87;;;9.80;99.90;;;;;;5012814;28;20169;-60
2022/04/18 05:54:51;;;;;;;27.07;2.90;;;9.90;99.90;;;;;;5012485;28;20676;-60
2022/04/18 05:57:17;;;;;;;28.90;3.67;;;9.80;99.90;;;;;;5012773;28;20244;-59
2022/04/18 05:59:43;;;;;;;23.53;3.60;;;9.80;99.90;;;;;;5012827;28;20235;-60
2022/04/18 06:02:09;;;;;;;15.23;3.30;;;9.90;99.90;;;;;;5012738;28;20260;-60
2022/04/18 06:04:35;;;;;;;18.50;2.67;;;9.90;99.90;;;;;;5012440;28;20178;-59
2022/04/18 06:07:00;;;;;;;19.03;2.83;;;9.90;99.90;;;;;;5011312;28;20526;-59
2022/04/18 06:09:26;;;;;;;30.80;3.73;;;9.90;99.90;;;;;;5012484;28;20185;-60
2022/04/18 06:11:52;;;;;;;25.60;3.27;;;9.90;99.90;;;;;;5012827;28;20175;-60
2022/04/18 06:14:18;;;;;;;27.50;3.50;;;9.90;99.90;;;;;;5012582;28;20631;-60
2022/04/18 06:16:44;;;;;;;24.70;3.53;;;10.00;99.90;;;;;;5012667;28;20186;-60
2022/04/18 06:19:10;;;;;;;28.27;3.77;;;10.10;99.90;;;;;;5012469;28;20537;-60
2022/04/18 06:21:35;;;;;;;26.97;3.60;;;10.20;99.90;;;;;;5012593;28;20650;-59
2022/04/18 06:24:01;;;;;;;24.07;3.43;;;10.20;99.90;;;;;;5012385;28;20679;-60
2022/04/18 06:26:27;;;;;;;19.53;2.57;;;10.30;99.90;;;;;;5011675;28;20171;-60
2022/04/18 06:28:53;;;;;;;25.87;3.03;;;10.40;99.90;;;;;;5012276;28;20167;-60
2022/04/18 06:31:18;;;;;;;28.80;3.33;;;10.40;99.90;;;;;;5012129;28;20540;-58
2022/04/18 06:33:44;;;;;;;32.57;3.30;;;10.40;99.90;;;;;;5012250;28;20667;-58
2022/04/18 06:36:10;;;;;;;31.07;3.63;;;10.40;99.90;;;;;;5011826;28;20203;-59
2022/04/18 06:38:36;;;;;;;18.53;3.07;;;10.50;99.90;;;;;;5011661;28;20317;-59
2022/04/18 06:41:02;;;;;;;33.93;4.00;;;10.60;99.90;;;;;;5011844;28;20170;-59
2022/04/18 06:43:27;;;;;;;27.27;3.63;;;10.60;99.90;;;;;;5011797;28;20599;-58
2022/04/18 06:45:53;;;;;;;21.83;3.70;;;10.50;99.90;;;;;;5011670;28;20171;-58
2022/04/18 06:48:19;;;;;;;16.37;3.03;;;10.40;99.90;;;;;;5011700;28;20175;-58
2022/04/18 06:50:46;;;;;;;25.57;3.33;;;10.50;99.90;;;;;;5011690;28;20175;-58
2022/04/18 06:53:12;;;;;;;25.63;3.17;;;10.60;99.90;;;;;;5011839;28;20171;-59
2022/04/18 06:58:23;;;;;;;21.90;4.00;;;10.50;99.90;;;;;;5012062;28;20201;-58
2022/04/18 07:00:49;;;;;;;32.63;4.03;;;10.60;99.90;;;;;;5010199;28;20234;-58
2022/04/18 07:03:15;;;;;;;24.50;3.53;;;10.60;99.90;;;;;;5011559;28;20218;-58
2022/04/18 07:05:41;;;;;;;16.57;3.20;;;10.70;99.90;;;;;;5011705;28;20171;-59
2022/04/18 07:08:08;;;;;;;21.87;3.30;;;10.70;99.90;;;;;;5011473;28;20182;-59
2022/04/18 07:10:33;;;;;;;26.57;3.03;;;10.70;99.90;;;;;;5011566;28;20175;-59
2022/04/18 07:12:59;;;;;;;22.43;3.80;;;10.80;99.90;;;;;;5011297;28;20535;-59
2022/04/18 07:15:25;;;;;;;24.80;3.33;;;10.80;99.90;;;;;;5011203;28;20269;-59
2022/04/18 07:17:51;;;;;;;21.13;3.20;;;10.80;99.90;;;;;;5011806;28;20171;-59
2022/04/18 07:20:17;;;;;;;29.93;3.20;;;10.90;99.90;;;;;;5011186;28;20177;-60
2022/04/18 07:22:43;;;;;;;27.53;3.67;;;10.90;99.90;;;;;;5011309;28;20661;-59
2022/04/18 07:25:09;;;;;;;24.00;3.53;;;10.90;99.90;;;;;;5011197;28;20241;-59
2022/04/18 07:27:35;;;;;;;23.00;3.50;;;11.00;99.90;;;;;;5011297;28;20321;-59
2022/04/18 07:30:02;;;;;;;28.03;3.30;;;11.10;99.90;;;;;;5011065;28;20695;-59
2022/04/18 07:32:27;;;;;;;27.13;3.60;;;11.10;99.90;;;;;;5009785;28;20220;-59
2022/04/18 07:34:53;;;;;;;22.47;3.17;;;11.20;99.90;;;;;;5009608;28;20276;-59
2022/04/18 07:37:20;;;;;;;21.57;3.20;;;11.30;99.90;;;;;;5009256;28;20186;-59
2022/04/18 07:39:45;;;;;;;19.43;2.97;;;11.50;99.90;;;;;;5010643;28;20214;-59
2022/04/18 07:42:11;;;;;;;16.90;3.10;;;11.60;99.90;;;;;;5010737;28;20218;-59
2022/04/18 07:44:37;;;;;;;25.83;3.87;;;11.70;99.90;;;;;;5010864;28;20620;-59
2022/04/18 07:47:04;;;;;;;25.23;3.43;;;11.90;99.90;;;;;;5010792;28;20186;-59
2022/04/18 07:49:30;;;;;;;24.80;3.23;;;12.00;99.90;;;;;;5010864;28;20167;-59
2022/04/18 07:51:56;;;;;;;27.30;3.37;;;12.30;99.90;;;;;;5010702;28;20245;-59
2022/04/18 07:54:23;;;;;;;23.73;4.07;;;12.40;99.90;;;;;;5010996;28;20197;-59
2022/04/18 07:56:49;;;;;;;22.80;3.40;;;12.70;99.90;;;;;;5010557;28;20720;-59
2022/04/18 07:59:15;;;;;;;26.33;2.93;;;12.80;99.90;;;;;;5010909;28;20178;-59
2022/04/18 08:01:42;;;;;;;16.60;2.72;;;12.90;99.90;;;;;;5010774;28;20661;-59
2022/04/18 08:04:07;;;;;;;17.40;2.70;;;12.80;99.90;;;;;;5010771;28;20193;-59
2022/04/18 08:06:33;;;;;;;17.30;2.60;;;12.90;99.90;;;;;;5010772;28;20190;-59
2022/04/18 08:09:00;;;;;;;17.17;2.88;;;13.20;99.90;;;;;;5010753;28;20710;-59
2022/04/18 08:11:26;;;;;;;19.13;3.30;;;13.50;99.90;;;;;;5010669;28;20261;-59
2022/04/18 08:13:52;;;;;;;15.98;2.70;;;13.70;99.90;;;;;;5010673;28;20229;-59
2022/04/18 08:16:18;;;;;;;17.40;3.03;;;13.60;99.90;;;;;;5010647;28;20169;-59
2022/04/18 08:18:45;;;;;;;19.50;2.85;;;13.80;99.90;;;;;;5010564;28;20179;-59
2022/04/18 08:21:15;;;;;;;17.30;2.55;;;14.20;99.90;;;;;;5010450;28;20265;-59
2022/04/18 08:23:43;;;;;;;16.02;2.53;;;14.10;99.90;;;;;;5010463;28;20174;-59
2022/04/18 08:26:09;;;;;;;18.40;2.80;;;14.30;99.90;;;;;;5010491;28;20174;-59
2022/04/18 08:28:35;;;;;;;14.65;2.50;;;15.10;99.90;;;;;;5010485;28;20229;-61
2022/04/18 08:31:01;;;;;;;23.40;2.78;;;15.90;99.90;;;;;;5010280;28;20289;-57
2022/04/18 08:36:49;;;;;;;27.98;10.82;;;16.20;99.90;;;;;;5010792;28;20260;-58
2022/04/18 08:39:15;;;;;;;14.50;4.43;;;16.50;99.90;;;;;;5010423;28;20210;-58
2022/04/18 08:41:46;;;;;;;19.73;6.40;;;16.00;99.90;;;;;;5010388;28;20199;-58
2022/04/18 08:44:12;;;;;;;34.22;15.35;;;15.60;99.90;;;;;;5010428;28;20178;-57
2022/04/18 08:46:38;;;;;;;12.23;2.20;;;15.40;99.90;;;;;;5009975;28;20211;-57
2022/04/18 08:54:35;;;;;;;13.27;2.85;;;14.80;99.90;;;;;;5014044;28;20236;-58
2022/04/18 08:57:01;;;;;;;12.90;2.70;;;15.80;99.90;;;;;;5013806;28;20316;-58
2022/04/18 08:59:26;;;;;;;15.43;2.67;;;16.30;99.90;;;;;;5013776;28;20202;-58
2022/04/18 09:01:52;;;;;;;10.32;1.83;;;17.00;99.90;;;;;;5013548;28;20254;-58
2022/04/18 09:04:21;;;;;;;14.80;1.98;;;17.30;99.90;;;;;;5013733;28;20186;-58
2022/04/18 09:06:47;;;;;;;10.10;1.92;;;16.70;99.90;;;;;;5013649;28;20634;-58
2022/04/18 09:09:14;;;;;;;16.20;2.72;;;16.90;99.90;;;;;;5013552;28;20189;-58
2022/04/18 09:11:43;;;;;;;13.55;2.13;;;17.20;99.90;;;;;;5013417;28;20633;-58
2022/04/18 09:14:14;;;;;;;10.63;2.42;;;16.70;99.90;;;;;;5013545;28;20206;-58
2022/04/18 09:16:41;;;;;;;14.35;2.60;;;16.30;99.90;;;;;;5013518;28;20177;-58
2022/04/18 09:19:11;;;;;;;15.27;2.70;;;16.50;99.90;;;;;;5013260;28;20265;-58
2022/04/18 09:21:55;;;;;;;12.10;2.45;;;16.40;99.90;;;;;;5013256;28;20289;-58
2022/04/18 09:24:34;;;;;;;6.95;1.95;;;17.00;99.90;;;;;;5012136;28;20173;-58
2022/04/18 09:27:14;;;;;;;12.38;2.10;;;17.40;99.90;;;;;;5013314;28;20178;-58
2022/04/18 09:29:40;;;;;;;12.10;2.08;;;16.70;99.90;;;;;;5013312;28;20245;-58
2022/04/18 09:32:08;;;;;;;15.70;2.38;;;16.10;99.90;;;;;;5011901;28;20590;-58
2022/04/18 09:34:34;;;;;;;12.73;2.10;;;15.90;99.90;;;;;;5013104;28;20178;-58
2022/04/18 09:37:13;;;;;;;9.60;2.47;;;16.50;99.90;;;;;;5013013;28;20533;-57
2022/04/18 09:39:52;;;;;;;15.73;4.45;;;17.20;99.90;;;;;;5012953;28;20194;-58
2022/04/18 09:42:21;;;;;;;15.20;6.25;;;18.20;99.90;;;;;;5012763;28;20206;-57
2022/04/18 09:44:47;;;;;;;11.50;2.35;;;18.60;99.90;;;;;;5012754;28;20182;-58
2022/04/18 09:47:23;;;;;;;13.35;2.13;;;18.50;99.90;;;;;;5012979;28;20545;-58
2022/04/18 09:49:50;;;;;;;11.50;2.70;;;19.10;99.90;;;;;;5012658;28;20166;-58
2022/04/18 09:52:17;;;;;;;15.02;2.13;;;19.70;99.90;;;;;;5012888;28;20175;-58
2022/04/18 09:54:50;;;;;;;14.52;2.22;;;19.50;99.90;;;;;;5012695;28;20249;-58
2022/04/18 09:57:20;;;;;;;8.38;1.98;;;18.70;99.90;;;;;;5012762;28;20171;-58
2022/04/18 09:59:50;;;;;;;8.43;1.80;;;18.30;99.90;;;;;;5012630;28;20167;-58
2022/04/18 10:02:17;;;;;;;11.48;2.03;;;18.40;99.90;;;;;;5011810;28;20224;-58
2022/04/18 10:04:43;;;;;;;11.88;2.60;;;18.70;99.90;;;;;;5012800;28;20182;-58
2022/04/18 10:07:10;;;;;;;8.68;2.33;;;18.90;99.90;;;;;;5012618;28;20174;-58
2022/04/18 10:09:39;;;;;;;10.55;2.50;;;18.40;99.90;;;;;;5012621;28;20306;-58
2022/04/18 10:12:09;;;;;;;14.15;2.28;;;17.50;99.90;;;;;;5012612;28;20256;-58
2022/04/18 10:14:36;;;;;;;10.77;2.25;;;16.80;99.90;;;;;;5012798;28;20606;-58
2022/04/18 10:17:05;;;;;;;10.68;2.15;;;16.80;99.90;;;;;;5012584;28;20205;-58
2022/04/18 10:19:41;;;;;;;12.57;3.00;;;17.00;99.90;;;;;;5012140;28;20604;-58
2022/04/18 10:22:46;;;;;;;10.40;2.17;;;17.00;99.90;;;;;;5012310;28;20209;-58
2022/04/18 10:25:34;;;;;;;12.57;2.53;;;16.90;99.90;;;;;;5012294;28;20175;-58
2022/04/18 10:28:14;;;;;;;13.20;2.17;;;16.30;99.90;;;;;;5012098;28;20249;-58
2022/04/18 10:31:35;;;;;;;13.93;2.33;;;16.40;99.90;;;;;;5012183;28;20171;-57
2022/04/18 10:34:02;;;;;;;9.15;2.40;;;16.60;99.90;;;;;;4994132;28;20649;-58
2022/04/18 10:36:31;;;;;;;9.07;2.00;;;16.50;99.90;;;;;;5012196;28;20240;-58
2022/04/18 10:39:03;;;;;;;6.35;1.48;;;16.30;99.90;;;;;;5012123;28;20182;-58
2022/04/18 10:41:39;;;;;;;10.05;2.05;;;16.00;99.90;;;;;;5011786;28;20195;-58
2022/04/18 10:44:13;;;;;;;10.77;2.00;;;16.10;99.90;;;;;;5011904;28;20178;-58
2022/04/18 10:46:40;;;;;;;8.93;2.00;;;16.30;99.90;;;;;;5011711;28;20174;-58
2022/04/18 10:49:20;;;;;;;9.40;1.88;;;16.90;99.90;;;;;;5011781;28;20174;-59
2022/04/18 10:51:48;;;;;;;9.10;1.92;;;17.20;99.90;;;;;;5011763;28;20182;-58
2022/04/18 10:54:23;;;;;;;10.48;2.00;;;18.80;99.90;;;;;;5011979;28;20193;-58
2022/04/18 10:56:54;;;;;;;11.52;1.80;;;18.60;99.90;;;;;;5011497;28;20242;-59
2022/04/18 10:59:23;;;;;;;12.15;2.22;;;18.80;99.90;;;;;;5011598;28;20216;-59
2022/04/18 11:01:50;;;;;;;11.57;2.03;;;19.40;99.90;;;;;;5011527;28;20202;-59
2022/04/18 11:04:16;;;;;;;8.32;1.92;;;20.00;99.90;;;;;;5011571;28;20179;-59
2022/04/18 11:06:44;;;;;;;8.07;1.50;;;21.30;99.90;;;;;;5011562;28;20163;-59
2022/04/18 11:09:13;;;;;;;7.47;1.65;;;21.90;99.90;;;;;;5011456;28;20170;-60
2022/04/18 11:12:01;;;;;;;7.35;1.40;;;21.40;99.90;;;;;;5011149;28;20178;-59
2022/04/18 11:14:29;;;;;;;11.68;1.83;;;20.50;99.90;;;;;;5011025;28;20265;-58
2022/04/18 11:17:02;;;;;;;8.45;1.92;;;19.70;99.90;;;;;;5011409;28;20258;-58
2022/04/18 11:19:31;;;;;;;6.10;1.40;;;19.40;99.90;;;;;;5010998;28;20274;-58
2022/04/18 11:21:57;;;;;;;6.75;1.55;;;19.30;99.90;;;;;;5011028;28;20260;-58
2022/04/18 11:24:45;;;;;;;9.15;1.75;;;17.70;99.90;;;;;;5011112;28;20193;-58
2022/04/18 11:27:21;;;;;;;7.13;1.77;;;17.70;99.90;;;;;;5011014;28;20163;-59
2022/04/18 11:29:57;;;;;;;7.70;1.67;;;18.70;99.90;;;;;;5011093;28;20174;-59
2022/04/18 11:32:38;;;;;;;7.45;1.63;;;18.60;99.90;;;;;;5010940;28;20175;-58
2022/04/18 11:35:06;;;;;;;7.25;1.55;;;18.50;99.90;;;;;;5010986;28;20641;-58
2022/04/18 11:37:34;;;;;;;8.68;1.50;;;19.40;99.90;;;;;;5010909;28;20170;-59
2022/04/18 11:40:05;;;;;;;13.30;2.25;;;20.40;99.90;;;;;;5010731;28;20692;-59
2022/04/18 11:42:33;;;;;;;9.27;1.98;;;20.30;99.90;;;;;;5010868;28;20212;-59
2022/04/18 11:45:01;;;;;;;11.85;1.80;;;21.40;99.90;;;;;;5010623;28;20194;-59
2022/04/18 11:47:38;;;;;;;8.13;2.28;;;20.10;99.90;;;;;;5010892;28;20178;-59
2022/04/18 11:50:05;;;;;;;8.93;2.00;;;20.00;99.90;;;;;;5010559;28;20506;-59
2022/04/18 11:52:37;;;;;;;7.85;1.80;;;20.00;99.90;;;;;;5010533;28;20183;-59
2022/04/18 11:55:14;;;;;;;8.30;1.70;;;19.50;99.90;;;;;;5010400;28;20249;-59
2022/04/18 11:57:42;;;;;;;6.60;1.45;;;19.50;99.90;;;;;;5010615;28;20174;-59
2022/04/18 12:00:10;;;;;;;7.32;1.92;;;19.00;99.90;;;;;;5010683;28;20265;-58
2022/04/18 12:08:09;;;;;;;7.65;1.63;;;17.80;99.90;;;;;;5010504;28;20293;-58
2022/04/18 12:10:39;;;;;;;13.40;1.63;;;18.50;99.90;;;;;;5010372;28;20266;-58
2022/04/18 12:13:13;;;;;;;3.92;1.10;;;19.40;99.90;;;;;;5010430;28;20273;-59
2022/04/18 12:15:40;;;;;;;7.22;1.08;;;19.10;99.90;;;;;;5010398;28;20178;-58
2022/04/18 12:18:26;;;;;;;4.10;1.30;;;18.00;99.90;;;;;;5010145;28;20240;-58
2022/04/18 12:20:53;;;;;;;6.10;1.20;;;17.40;99.90;;;;;;5010128;28;20556;-59
2022/04/18 12:23:24;;;;;;;4.47;1.13;;;16.70;99.90;;;;;;5010410;28;20298;-59
2022/04/18 12:25:51;;;;;;;5.18;1.35;;;16.20;99.90;;;;;;5013856;28;20653;-58
2022/04/18 12:28:21;;;;;;;4.38;1.35;;;15.90;99.90;;;;;;5014112;28;20170;-58
2022/04/18 12:30:47;;;;;;;5.80;1.77;;;15.80;99.90;;;;;;5014226;28;20178;-59
2022/04/18 12:33:22;;;;;;;4.63;1.83;;;15.70;99.90;;;;;;5014560;28;20197;-58
2022/04/18 12:35:51;;;;;;;7.57;1.63;;;15.60;99.90;;;;;;5014467;28;20191;-58
2022/04/18 12:38:19;;;;;;;4.22;1.00;;;15.90;99.90;;;;;;5013963;28;20648;-58
2022/04/18 12:40:52;;;;;;;7.35;1.50;;;15.40;99.90;;;;;;5014089;28;20163;-60
2022/04/18 12:43:18;;;;;;;5.00;1.17;;;15.40;99.90;;;;;;5013853;28;20209;-58
2022/04/18 12:45:52;;;;;;;7.18;1.67;;;15.50;99.90;;;;;;5014018;28;20170;-59
2022/04/18 12:48:23;;;;;;;10.07;1.75;;;15.50;99.90;;;;;;5013130;28;20193;-58
2022/04/18 12:50:50;;;;;;;7.35;1.80;;;15.90;99.90;;;;;;5014069;28;20163;-58
2022/04/18 12:53:17;;;;;;;13.98;1.88;;;16.00;99.90;;;;;;5014000;28;20174;-58
2022/04/18 12:55:43;;;;;;;5.57;1.95;;;16.20;99.90;;;;;;5013810;28;20222;-58
2022/04/18 12:58:21;;;;;;;9.85;1.70;;;16.50;99.90;;;;;;5013714;28;20178;-58
2022/04/18 13:00:50;;;;;;;10.57;1.67;;;17.20;99.90;;;;;;5013951;28;20182;-58
2022/04/18 13:03:20;;;;;;;7.35;1.42;;;17.30;99.90;;;;;;5013853;28;20209;-57
2022/04/18 13:05:48;;;;;;;7.93;1.63;;;17.50;99.90;;;;;;5013831;28;20584;-57
2022/04/18 13:08:16;;;;;;;14.20;4.88;;;17.50;99.90;;;;;;5013753;28;20725;-58
2022/04/18 13:10:43;;;;;;;10.60;2.55;;;17.80;99.90;;;;;;5013889;28;20167;-58